Time;durP1;ratioP1;P1;durP2;ratioP2;P2;SDS_P1;SDS_P2;PMS_P1;PMS_P2;Temp;Humidity;BMP_temperature;BMP_pressure;BME280_temperature;BME280_humidity;BME280_pressure;Samples;Min_cycle;Max_cycle;Signal;HPM_P1;HPM_P2
2021/11/22 00:00:26;;;;;;;11.77;4.15;;;2.40;99.90;;;0.67;100.00;101413.16;2572813;30;137169;-38
2021/11/22 00:02:56;;;;;;;8.18;3.85;;;2.50;99.90;;;0.72;100.00;101413.59;2572081;30;137709;-38
2021/11/22 00:05:24;;;;;;;11.40;4.38;;;2.60;99.90;;;0.77;100.00;101413.19;2568395;30;138165;-38
2021/11/22 00:07:52;;;;;;;9.35;4.53;;;2.60;99.90;;;0.80;100.00;101421.00;2569151;30;138486;-38
2021/11/22 00:10:21;;;;;;;11.32;4.53;;;2.70;99.90;;;0.79;100.00;101416.59;2571309;30;137640;-41
2021/11/22 00:12:49;;;;;;;8.10;4.15;;;2.70;99.90;;;0.76;100.00;101417.72;2571091;30;138468;-38
2021/11/22 00:15:17;;;;;;;;;;;2.60;99.90;;;0.76;100.00;101424.91;2570464;30;138415;-38
2021/11/22 00:17:46;;;;;;;9.30;3.53;;;2.70;99.90;;;0.70;100.00;101421.78;2570063;30;138383;-38
2021/11/22 00:20:19;;;;;;;9.57;3.20;;;2.60;99.90;;;0.70;100.00;101421.78;2571098;30;137017;-38
2021/11/22 00:22:48;;;;;;;8.68;3.10;;;2.60;99.90;;;0.68;100.00;101434.50;2571509;30;139128;-38
2021/11/22 00:25:17;;;;;;;8.23;3.13;;;2.60;99.90;;;0.65;100.00;101432.09;2570779;30;138173;-38
2021/11/22 00:27:46;;;;;;;9.20;3.10;;;2.60;99.90;;;0.60;100.00;101425.41;2570809;30;139450;-38
2021/11/22 00:30:34;;;;;;;7.70;3.00;;;2.50;99.90;;;0.59;100.00;101435.31;2570938;30;137050;-41
2021/11/22 00:33:05;;;;;;;9.10;3.03;;;2.50;99.90;;;0.60;100.00;101431.63;2569239;30;138934;-41
2021/11/22 00:35:50;;;;;;;9.18;2.60;;;2.50;99.90;;;0.61;100.00;101436.03;2569571;30;138019;-38
2021/11/22 00:38:18;;;;;;;11.23;3.03;;;2.50;99.90;;;0.58;100.00;101433.59;2567343;30;138490;-38
2021/11/22 00:40:47;;;;;;;;;;;2.50;99.90;;;0.62;100.00;101443.09;2570875;30;138592;-38
2021/11/22 00:43:15;;;;;;;8.30;2.93;;;2.50;99.90;;;0.60;100.00;101447.75;2569767;30;136804;-38
2021/11/22 00:45:42;;;;;;;;;;;2.50;99.90;;;0.65;100.00;101461.63;2568859;30;138350;-38
2021/11/22 00:48:10;;;;;;;8.80;2.70;;;2.50;99.90;;;0.80;100.00;101458.63;2571174;30;138400;-38
2021/11/22 00:50:37;;;;;;;7.90;2.90;;;2.60;99.90;;;0.91;100.00;101457.66;2571681;30;137101;-38
2021/11/22 00:53:05;;;;;;;8.40;2.90;;;2.70;99.90;;;0.91;100.00;101461.22;2570990;30;137953;-38
2021/11/22 00:55:33;;;;;;;6.53;2.70;;;2.80;99.90;;;1.04;100.00;101469.06;2569755;30;138594;-38
2021/11/22 00:58:00;;;;;;;6.25;2.90;;;2.80;99.90;;;1.12;100.00;101465.69;2568996;30;138807;-38
2021/11/22 01:00:28;;;;;;;8.25;2.95;;;3.00;99.90;;;1.26;100.00;101475.25;2570316;30;138757;-38
2021/11/22 01:02:56;;;;;;;7.38;2.70;;;3.00;99.90;;;1.29;100.00;101477.66;2570035;30;137244;-38
2021/11/22 01:05:23;;;;;;;10.15;3.60;;;3.10;99.90;;;1.32;100.00;101489.97;2571423;30;136730;-38
2021/11/22 01:07:51;;;;;;;8.75;3.35;;;3.10;99.90;;;1.33;100.00;101495.22;2569340;30;138466;-38
2021/11/22 01:10:22;;;;;;;8.80;2.97;;;3.10;99.90;;;1.46;100.00;101491.44;2570974;30;137350;-38
2021/11/22 01:12:51;;;;;;;13.20;3.13;;;3.20;99.90;;;1.57;100.00;101500.25;2570521;30;138253;-40
2021/11/22 01:15:23;;;;;;;8.52;3.55;;;3.30;99.90;;;1.71;100.00;101495.50;2569812;30;138328;-41
2021/11/22 01:17:55;;;;;;;12.82;4.47;;;3.40;99.90;;;1.79;100.00;101489.41;2569350;30;139025;-41
2021/11/22 01:20:29;;;;;;;13.88;3.90;;;3.50;99.90;;;1.86;100.00;101490.56;2566817;30;137652;-38
2021/11/22 01:23:10;;;;;;;9.43;3.42;;;3.60;99.90;;;1.92;100.00;101508.84;2568713;30;138607;-38
2021/11/22 01:25:41;;;;;;;9.93;3.45;;;3.70;99.90;;;2.02;100.00;101511.53;2570101;30;136792;-38
2021/11/22 01:28:10;;;;;;;10.18;3.40;;;3.70;99.90;;;2.05;100.00;101516.66;2567877;30;138734;-38
2021/11/22 01:30:42;;;;;;;7.85;3.58;;;3.80;99.90;;;2.13;100.00;101518.66;2570304;30;137665;-38
2021/11/22 01:33:13;;;;;;;12.00;4.45;;;3.90;99.90;;;2.17;100.00;101522.75;2568249;30;138378;-38
2021/11/22 01:35:45;;;;;;;9.85;4.65;;;3.90;99.90;;;2.23;100.00;101526.75;2569838;30;137873;-38
2021/11/22 01:38:14;;;;;;;14.30;5.28;;;4.00;99.90;;;2.23;100.00;101529.44;2570574;30;138554;-38
2021/11/22 01:40:45;;;;;;;11.35;5.45;;;4.00;99.90;;;2.36;100.00;101538.06;2568560;30;136951;-38
2021/11/22 01:43:14;;;;;;;10.20;5.50;;;4.10;99.90;;;2.42;100.00;101534.84;2569387;30;140683;-38
2021/11/22 01:45:50;;;;;;;14.70;5.95;;;4.20;99.90;;;2.46;100.00;101526.47;2566074;30;138873;-38
2021/11/22 01:48:22;;;;;;;16.80;8.05;;;4.20;99.90;;;2.60;100.00;101534.13;2569432;30;138540;-38
2021/11/22 01:50:53;;;;;;;19.65;8.32;;;4.30;99.90;;;2.65;100.00;101537.25;2568597;30;136801;-38
2021/11/22 01:53:23;;;;;;;19.45;9.32;;;4.40;99.90;;;2.74;100.00;101543.59;2566172;30;139756;-38
2021/11/22 01:55:57;;;;;;;20.45;9.38;;;4.40;99.90;;;2.73;100.00;101548.16;2569009;30;138322;-38
2021/11/22 01:58:25;;;;;;;17.85;9.90;;;4.50;99.90;;;2.84;100.00;101559.78;2570725;30;137416;-38
2021/11/22 02:00:55;;;;;;;20.88;9.75;;;4.60;99.90;;;2.83;100.00;101561.63;2571166;30;136822;-38
2021/11/22 02:03:24;;;;;;;22.17;10.65;;;4.60;99.90;;;2.83;100.00;101561.63;2569366;30;139225;-41
2021/11/22 02:05:52;;;;;;;23.30;9.57;;;4.60;99.90;;;2.78;100.00;101568.44;2570972;30;137466;-41
2021/11/22 02:08:21;;;;;;;;;;;4.60;99.90;;;2.85;100.00;101575.81;2571651;30;139113;-40
2021/11/22 02:10:50;;;;;;;21.08;9.77;;;4.60;99.90;;;2.96;100.00;101574.81;2569610;30;136802;-40
2021/11/22 02:13:18;;;;;;;20.52;9.68;;;4.70;99.90;;;2.95;100.00;101581.19;2570036;30;138178;-40
2021/11/22 02:15:46;;;;;;;20.20;10.50;;;4.70;99.90;;;2.97;100.00;101587.31;2568075;30;138605;-41
2021/11/22 02:18:15;;;;;;;19.42;10.15;;;4.70;99.90;;;2.97;100.00;101581.91;2569717;30;139300;-40
2021/11/22 02:20:43;;;;;;;20.55;11.20;;;4.70;99.90;;;3.01;100.00;101593.22;2568117;30;137533;-38
2021/11/22 02:23:12;;;;;;;23.70;10.57;;;4.70;99.90;;;3.07;100.00;101586.44;2571398;30;139503;-39
2021/11/22 02:25:44;;;;;;;23.05;11.20;;;4.80;99.90;;;3.08;100.00;101590.81;2568348;30;137207;-38
2021/11/22 02:28:15;;;;;;;20.08;10.88;;;4.80;99.90;;;3.10;100.00;101595.09;2568841;30;138083;-38
2021/11/22 02:30:47;;;;;;;20.70;11.20;;;4.80;99.90;;;3.13;100.00;101596.63;2571504;30;137063;-38
2021/11/22 02:33:20;;;;;;;23.02;11.73;;;4.80;99.90;;;3.13;100.00;101599.31;2571185;30;138262;-40
2021/11/22 02:35:52;;;;;;;23.65;11.40;;;4.90;99.90;;;3.11;100.00;101601.31;2569343;30;139187;-41
2021/11/22 02:38:37;;;;;;;22.75;12.30;;;4.90;99.90;;;3.18;100.00;101607.81;2567068;30;136859;-41
2021/11/22 02:41:08;;;;;;;21.70;11.50;;;4.90;99.90;;;3.16;100.00;101616.06;2568231;30;138883;-41
2021/11/22 02:43:40;;;;;;;23.13;11.52;;;4.90;99.90;;;3.23;100.00;101607.41;2568613;30;139904;-40
2021/11/22 02:46:07;;;;;;;28.27;13.20;;;4.90;99.90;;;3.28;100.00;101616.75;2570596;30;138255;-41
2021/11/22 02:48:36;;;;;;;24.38;12.70;;;5.00;99.90;;;3.42;100.00;101612.75;2570312;30;137343;-40
2021/11/22 02:51:05;;;;;;;22.88;12.25;;;5.10;99.90;;;3.44;100.00;101615.28;2570105;30;137711;-41
2021/11/22 02:53:33;;;;;;;25.23;11.95;;;5.10;99.90;;;3.41;100.00;101612.91;2568557;30;138739;-40
2021/11/22 02:56:07;;;;;;;22.55;11.88;;;5.10;99.90;;;3.42;100.00;101615.47;2567920;30;137557;-40
2021/11/22 02:58:39;;;;;;;23.05;11.90;;;5.10;99.90;;;3.42;100.00;101617.28;2571139;30;136947;-40
2021/11/22 03:01:10;;;;;;;20.17;10.85;;;5.10;99.90;;;3.43;100.00;101616.28;2568606;30;138016;-41
2021/11/22 03:03:38;;;;;;;21.50;11.20;;;5.10;99.90;;;3.43;100.00;101622.56;2570105;30;137311;-40
2021/11/22 03:06:10;;;;;;;;;;;5.10;99.90;;;3.45;100.00;101625.13;2570708;30;137629;-40
2021/11/22 03:08:41;;;;;;;21.00;12.20;;;5.20;99.90;;;3.51;100.00;101635.31;2572018;30;138766;-41
2021/11/22 03:11:10;;;;;;;21.70;12.25;;;5.20;99.90;;;3.58;100.00;101636.44;2569933;30;137035;-40
2021/11/22 03:13:40;;;;;;;24.05;12.70;;;5.30;99.90;;;3.55;100.00;101635.84;2570144;30;138287;-41
2021/11/22 03:16:10;;;;;;;21.08;12.02;;;5.30;99.90;;;3.53;100.00;101644.13;2567860;30;138440;-40
2021/11/22 03:18:38;;;;;;;24.77;12.40;;;5.20;99.90;;;3.50;100.00;101639.03;2569308;30;139184;-41
2021/11/22 03:21:07;;;;;;;20.23;11.63;;;5.20;99.90;;;3.56;100.00;101649.22;2569266;30;137832;-40
2021/11/22 03:23:36;;;;;;;20.23;11.43;;;5.30;99.90;;;3.58;100.00;101652.63;2565700;30;139014;-40
2021/11/22 03:26:04;;;;;;;22.90;11.52;;;5.30;99.90;;;3.57;100.00;101659.00;2570673;30;137030;-40
2021/11/22 03:39:25;;;;;;;16.00;10.00;;;5.30;99.90;;;3.86;100.00;101676.13;2564551;30;140167;-39
2021/11/22 03:41:55;;;;;;;16.02;9.27;;;5.50;99.90;;;3.85;100.00;101669.88;2568473;30;137604;-39
2021/11/22 03:44:24;;;;;;;14.82;9.00;;;5.60;99.90;;;3.86;100.00;101678.84;2567919;30;138277;-39
2021/11/22 03:46:55;;;;;;;15.48;9.00;;;5.60;99.90;;;3.93;100.00;101679.94;2564628;30;137930;-39
2021/11/22 03:49:23;;;;;;;13.55;7.80;;;5.60;99.90;;;3.96;100.00;101690.44;2566684;30;138287;-39
2021/11/22 03:51:51;;;;;;;;;;;5.60;99.90;;;4.07;100.00;101700.22;2567431;30;137635;-39
2021/11/22 03:54:20;;;;;;;15.05;7.05;;;5.70;99.90;;;4.00;100.00;101694.53;2567938;30;138146;-39
2021/11/22 03:56:47;;;;;;;;;;;5.70;99.90;;;4.05;100.00;101704.06;2568835;30;137598;-39
2021/11/22 03:59:15;;;;;;;14.05;6.63;;;5.80;99.90;;;4.06;100.00;101703.06;2565194;30;138594;-39
2021/11/22 04:01:43;;;;;;;10.30;6.55;;;5.70;99.90;;;4.05;100.00;101712.16;2567666;30;137719;-39
2021/11/22 04:04:10;;;;;;;11.82;7.13;;;5.70;99.90;;;4.05;100.00;101721.13;2566485;30;139112;-39
2021/11/22 04:06:38;;;;;;;10.20;5.97;;;5.70;99.90;;;4.03;100.00;101726.66;2567362;30;137780;-39
2021/11/22 04:09:06;;;;;;;11.60;6.47;;;5.70;99.90;;;4.03;100.00;101725.81;2566504;30;138402;-39
2021/11/22 04:11:35;;;;;;;;;;;5.70;99.90;;;4.05;100.00;101731.91;2565062;30;137272;-39
2021/11/22 04:14:05;;;;;;;;;;;5.70;99.90;;;4.07;100.00;101731.75;2567902;30;137145;-39
2021/11/22 04:16:34;;;;;;;10.57;5.93;;;5.80;99.90;;;4.00;100.00;101742.31;2564942;30;136903;-39
2021/11/22 04:19:02;;;;;;;10.82;6.00;;;5.70;99.90;;;4.11;100.00;101747.53;2567058;30;138475;-39
2021/11/22 04:21:30;;;;;;;11.18;6.15;;;5.80;99.90;;;4.12;100.00;101754.63;2567340;30;138096;-39
2021/11/22 04:23:58;;;;;;;11.90;6.55;;;5.80;99.90;;;4.10;100.00;101759.34;2567176;30;138073;-39
2021/11/22 04:26:26;;;;;;;11.13;6.25;;;5.80;99.90;;;4.08;100.00;101755.06;2566677;30;137661;-39
2021/11/22 04:28:53;;;;;;;9.57;6.15;;;5.80;99.90;;;4.11;100.00;101749.38;2566497;30;139186;-39
2021/11/22 04:31:21;;;;;;;8.93;5.50;;;5.80;99.90;;;4.09;100.00;101757.63;2566563;30;137580;-40
2021/11/22 04:33:49;;;;;;;8.55;5.32;;;5.80;99.90;;;4.07;100.00;101756.94;2567897;30;137680;-39
2021/11/22 04:36:16;;;;;;;8.00;5.07;;;5.80;99.90;;;4.13;100.00;101777.13;2567142;30;138029;-39
2021/11/22 09:37:30;;;;;;;;;;;5.80;99.90;;;4.45;96.40;102221.78;680980;30;845751392;31
2021/11/22 09:39:57;;;;;;;15.13;9.35;;;6.10;99.90;;;4.49;95.63;102239.41;2567858;30;136693;-39
2021/11/22 09:42:25;;;;;;;17.27;10.75;;;6.10;99.90;;;4.57;95.63;102244.16;2568803;30;139091;-38
2021/11/22 09:44:53;;;;;;;11.13;7.95;;;6.20;99.90;;;4.70;94.90;102246.59;2568966;30;137764;-38
2021/11/22 09:47:20;;;;;;;9.68;6.63;;;6.30;99.90;;;4.73;93.48;102244.44;2568078;30;138669;-38
2021/11/22 09:49:53;;;;;;;12.05;7.30;;;6.40;99.90;;;4.73;92.11;102247.16;2571243;30;136934;-40
2021/11/22 09:52:22;;;;;;;9.68;6.47;;;6.40;99.90;;;4.56;91.23;102245.16;2571033;30;138068;-40
2021/11/22 09:54:51;;;;;;;10.38;7.20;;;6.30;99.90;;;4.64;91.10;102247.13;2567100;30;137321;-40
2021/11/22 09:57:19;;;;;;;10.00;6.25;;;6.30;99.90;;;4.56;90.24;102245.97;2568974;30;138418;-40
2021/11/22 09:59:46;;;;;;;9.77;6.70;;;6.30;99.90;;;4.57;91.14;102252.25;2568420;30;137486;-40
2021/11/22 10:02:15;;;;;;;9.70;6.35;;;6.20;99.90;;;4.53;90.89;102250.81;2568872;30;139097;-40
2021/11/22 10:04:43;;;;;;;9.63;6.40;;;6.20;99.90;;;4.41;90.90;102248.22;2569233;30;137511;-41
2021/11/22 10:07:15;;;;;;;10.77;6.53;;;6.10;99.90;;;4.39;91.09;102252.06;2568236;30;138591;-40
2021/11/22 10:09:46;;;;;;;10.57;6.65;;;6.10;99.90;;;4.42;90.77;102246.38;2568505;30;138035;-40
2021/11/22 10:12:25;;;;;;;13.02;7.20;;;6.20;99.90;;;4.49;89.95;102262.88;2568197;30;138184;-40
2021/11/22 10:14:59;;;;;;;10.00;6.32;;;6.20;99.90;;;4.43;90.47;102256.19;2569943;30;138424;-40
2021/11/22 10:17:31;;;;;;;12.95;8.02;;;6.10;99.90;;;4.39;90.03;102255.59;2570653;30;137642;-40
2021/11/22 10:20:20;;;;;;;11.82;7.00;;;6.10;99.90;;;4.54;90.30;102258.78;2569170;30;138145;-40
2021/11/22 10:23:04;;;;;;;13.13;7.22;;;6.10;99.90;;;4.72;90.69;102260.84;2570859;30;137854;-40
2021/11/22 10:25:38;;;;;;;14.13;7.57;;;6.30;99.90;;;4.80;89.35;102270.97;2569558;30;137601;-40
2021/11/22 10:28:19;;;;;;;11.98;7.20;;;6.40;99.90;;;4.87;89.11;102269.41;2569185;30;137782;-40
2021/11/22 10:30:58;;;;;;;11.43;7.57;;;6.40;99.90;;;4.90;89.64;102279.94;2568788;30;138978;-40
2021/11/22 10:33:29;;;;;;;;;;;6.50;99.90;;;4.90;89.11;102269.13;2567133;30;137355;-41
2021/11/22 10:36:04;;;;;;;9.63;5.82;;;6.60;99.90;;;4.85;88.28;102271.41;2568573;30;137225;-39
2021/11/22 10:38:36;;;;;;;9.98;5.95;;;6.50;99.90;;;4.83;88.54;102266.13;2569474;30;139095;-40
2021/11/22 10:41:06;;;;;;;11.98;6.05;;;6.50;99.90;;;4.64;87.00;102271.47;2566564;30;137168;-40
2021/11/22 10:43:50;;;;;;;9.70;6.03;;;6.40;99.90;;;4.57;87.45;102269.31;2572610;30;138544;-40
2021/11/22 10:46:42;;;;;;;10.85;6.43;;;6.30;99.90;;;4.39;87.46;102269.13;2568609;30;138434;-40
2021/11/22 10:49:15;;;;;;;8.73;6.22;;;6.20;99.90;;;4.26;88.34;102271.22;2569302;30;138967;-40
2021/11/22 10:51:47;;;;;;;9.52;6.13;;;6.10;99.90;;;4.24;88.96;102278.56;2568341;30;137331;-40
2021/11/22 10:54:20;;;;;;;9.90;6.20;;;6.00;99.90;;;4.32;89.06;102271.50;2568899;30;138395;-40
2021/11/22 10:56:53;;;;;;;9.88;6.57;;;6.00;99.90;;;4.45;88.99;102268.56;2567931;30;137100;-40
2021/11/22 10:59:23;;;;;;;9.48;5.65;;;6.00;99.90;;;4.56;88.03;102267.59;2572302;30;136765;-40
2021/11/22 11:01:56;;;;;;;8.45;5.65;;;6.10;99.90;;;4.72;87.96;102269.78;2568453;30;138529;-40
2021/11/22 11:04:38;;;;;;;9.38;5.72;;;6.20;99.90;;;4.82;85.86;102266.28;2569142;30;138382;-40
2021/11/22 11:07:07;;;;;;;9.25;5.78;;;6.40;99.90;;;4.99;86.71;102270.97;2567263;30;137505;-40
2021/11/22 11:09:52;;;;;;;8.98;5.80;;;6.50;99.90;;;5.05;85.76;102269.56;2568813;30;138191;-40
2021/11/22 11:12:25;;;;;;;9.32;6.03;;;6.60;99.90;;;5.02;85.15;102277.97;2567373;30;136714;-40
2021/11/22 11:14:58;;;;;;;9.80;5.68;;;6.60;99.90;;;4.90;85.30;102267.25;2567800;30;137173;-40
2021/11/22 11:17:34;;;;;;;9.02;6.05;;;6.60;99.90;;;4.88;84.93;102279.22;2569992;30;137480;-40
2021/11/22 11:20:18;;;;;;;12.48;5.95;;;6.60;99.90;;;4.75;85.35;102280.31;2570371;30;138390;-40
2021/11/22 11:22:48;;;;;;;9.02;4.88;;;6.50;99.90;;;4.72;84.37;102283.31;2566850;30;136989;-40
2021/11/22 11:25:20;;;;;;;10.23;5.80;;;6.40;99.90;;;4.77;85.56;102282.03;2569367;30;138223;-40
2021/11/22 11:27:48;;;;;;;11.48;5.55;;;6.40;99.90;;;4.87;84.86;102285.63;2571020;30;137757;-38
2021/11/22 11:30:20;;;;;;;9.50;5.60;;;6.40;99.90;;;4.93;84.86;102293.19;2569745;30;137187;-38
2021/11/22 11:32:52;;;;;;;9.52;5.68;;;6.50;99.90;;;4.95;84.01;102288.50;2570401;30;137382;-40
2021/11/22 11:35:22;;;;;;;9.20;5.40;;;6.60;99.90;;;5.04;83.90;102293.09;2567216;30;138606;-40
2021/11/22 11:38:15;;;;;;;10.82;5.20;;;6.60;99.90;;;5.09;82.58;102289.09;2569557;30;137705;-40
2021/11/22 11:41:17;;;;;;;8.57;4.78;;;6.70;99.90;;;5.18;79.90;102299.94;2569519;30;138170;-40
2021/11/22 11:44:11;;;;;;;8.27;4.38;;;6.70;99.90;;;5.26;79.77;102284.84;2567542;30;137423;-40
2021/11/22 11:47:25;;;;;;;9.10;4.63;;;6.90;99.90;;;5.37;78.75;102300.09;2569937;30;138338;-40
2021/11/22 11:49:55;;;;;;;8.40;4.10;;;7.00;99.90;;;5.36;77.00;102290.25;2570692;30;137037;-40
2021/11/22 11:52:28;;;;;;;7.65;4.10;;;7.00;99.90;;;5.41;79.81;102291.53;2570877;30;137545;-40
2021/11/22 11:54:57;;;;;;;7.88;4.40;;;7.00;99.90;;;5.50;80.49;102289.81;2569685;30;137860;-40
2021/11/22 11:57:29;;;;;;;12.55;4.88;;;7.10;99.90;;;5.54;79.64;102285.81;2571373;30;139189;-40
2021/11/22 11:59:57;;;;;;;8.27;4.68;;;7.10;99.90;;;5.58;78.56;102289.09;2571142;30;137420;-40
2021/11/22 12:02:29;;;;;;;9.60;4.93;;;7.20;99.90;;;5.62;79.36;102290.53;2568849;30;138422;-40
2021/11/22 12:05:17;;;;;;;8.95;5.10;;;7.20;99.90;;;5.65;78.59;102286.69;2566879;30;137512;-40
2021/11/22 12:07:49;;;;;;;8.95;5.07;;;7.20;99.90;;;5.70;79.30;102285.25;2568307;30;138245;-40
2021/11/22 12:10:23;;;;;;;9.63;5.30;;;7.30;99.90;;;5.72;79.11;102279.69;2568621;30;137205;-40
2021/11/22 12:12:57;;;;;;;8.52;4.57;;;7.30;99.90;;;5.77;78.03;102296.34;2567296;30;137315;-40
2021/11/22 12:15:46;;;;;;;8.98;4.65;;;7.40;99.90;;;5.77;78.15;102293.63;2568143;30;137330;-40
2021/11/22 12:18:37;;;;;;;8.20;4.50;;;7.30;99.90;;;5.83;76.23;102290.34;2567712;30;137230;-40
2021/11/22 12:21:23;;;;;;;8.40;4.70;;;7.50;99.90;;;5.88;77.87;102281.78;2570852;30;137318;-40
2021/11/22 12:23:54;;;;;;;9.02;5.10;;;7.40;99.90;;;5.89;77.72;102287.09;2569903;30;138199;-40
2021/11/22 12:26:37;;;;;;;8.30;3.53;;;7.50;99.90;;;5.88;76.58;102285.38;2569171;30;137570;-40
2021/11/22 12:29:08;;;;;;;5.93;2.72;;;7.50;99.90;;;5.88;76.45;102282.66;2571759;30;138512;-40
2021/11/22 12:31:49;;;;;;;2.97;1.70;;;7.50;99.90;;;5.87;72.64;102283.66;2569934;30;136825;-40
2021/11/22 12:34:37;;;;;;;3.65;1.70;;;7.50;99.90;;;5.86;72.58;102275.66;2568820;30;138329;-40
2021/11/22 12:37:24;;;;;;;5.93;1.70;;;7.50;99.90;;;5.92;72.98;102291.34;2567878;30;138353;-40
2021/11/22 12:39:54;;;;;;;3.08;1.52;;;7.50;99.90;;;5.85;70.47;102291.09;2570360;30;137299;-40
2021/11/22 12:42:23;;;;;;;2.85;1.58;;;7.50;99.90;;;5.82;70.97;102291.34;2567800;30;137415;-40
2021/11/22 12:45:08;;;;;;;2.90;1.35;;;7.50;99.90;;;5.85;71.13;102293.78;2570044;30;137444;-40
2021/11/22 12:47:35;;;;;;;2.50;1.27;;;7.50;99.90;;;5.84;71.29;102300.22;2569385;30;137678;-40
2021/11/22 12:50:19;;;;;;;3.35;1.63;;;7.50;99.90;;;5.84;70.40;102294.78;2569361;30;138606;-41
2021/11/22 12:53:16;;;;;;;1.30;0.88;;;7.50;99.90;;;5.84;70.32;102292.09;2572676;30;137296;-40
2021/11/22 12:55:47;;;;;;;1.95;1.05;;;7.50;99.90;;;5.90;71.13;102299.63;2571411;30;138293;-40
2021/11/22 12:58:23;;;;;;;3.05;1.50;;;7.50;99.90;;;5.96;71.62;102297.31;2568363;30;137579;-41
2021/11/22 13:00:54;;;;;;;3.85;1.30;;;7.60;99.90;;;5.91;68.79;102300.47;2569453;30;138440;-40
2021/11/22 13:03:25;;;;;;;1.52;0.98;;;7.60;99.90;;;5.95;71.20;102295.63;2570355;30;137519;-40
2021/11/22 13:06:07;;;;;;;3.38;1.30;;;7.60;99.90;;;5.93;69.57;102301.16;2567424;30;137904;-40
2021/11/22 13:08:36;;;;;;;2.15;1.02;;;7.60;99.90;;;5.94;70.29;102304.75;2568533;30;137585;-40
2021/11/22 13:11:10;;;;;;;2.33;1.08;;;7.60;99.90;;;5.93;69.88;102309.28;2569966;30;138077;-40
2021/11/22 13:13:42;;;;;;;3.35;1.30;;;7.60;99.90;;;5.98;71.96;102307.03;2567601;30;137490;-40
2021/11/22 13:16:14;;;;;;;2.20;1.27;;;7.60;99.90;;;5.98;71.35;102314.28;2568468;30;138297;-40
2021/11/22 13:18:52;;;;;;;3.70;1.17;;;7.60;99.90;;;5.95;67.51;102311.88;2568509;30;137287;-40
2021/11/22 13:21:37;;;;;;;1.88;1.00;;;7.60;99.90;;;5.94;67.65;102321.00;2569529;30;138702;-40
2021/11/22 13:24:14;;;;;;;1.73;0.82;;;7.60;99.90;;;5.99;68.19;102332.25;2567490;30;137545;-40
2021/11/22 13:26:44;;;;;;;1.90;1.10;;;7.60;99.90;;;5.94;67.96;102329.13;2568201;30;139602;-40
2021/11/22 13:29:18;;;;;;;2.33;1.08;;;7.60;99.90;;;5.92;67.30;102326.56;2568734;30;137085;-40
2021/11/22 13:31:53;;;;;;;2.65;1.00;;;7.60;99.90;;;5.92;66.20;102328.44;2569093;30;138097;-40
2021/11/22 13:34:25;;;;;;;2.10;1.10;;;7.60;99.90;;;5.84;66.95;102331.84;2567362;30;137655;-40
2021/11/22 13:36:57;;;;;;;3.40;1.00;;;7.50;99.90;;;5.76;67.33;102329.84;2569286;30;138410;-40
2021/11/22 13:39:32;;;;;;;3.13;1.02;;;7.50;99.90;;;5.74;67.39;102326.44;2570100;30;139468;-40
2021/11/22 13:42:12;;;;;;;2.33;1.15;;;7.40;99.90;;;5.66;67.63;102331.72;2569954;30;139275;-40
2021/11/22 13:44:43;;;;;;;1.58;1.02;;;7.40;99.90;;;5.66;68.40;102340.69;2569225;30;136744;-40
2021/11/22 13:47:19;;;;;;;2.75;1.20;;;7.30;99.90;;;5.66;69.78;102340.69;2569483;30;138973;-40
2021/11/22 13:49:47;;;;;;;2.05;1.20;;;7.30;99.90;;;5.61;68.80;102348.38;2568479;30;138054;-40
2021/11/22 13:52:22;;;;;;;2.15;1.08;;;7.30;99.90;;;5.64;67.44;102339.13;2569841;30;137434;-39
2021/11/22 13:54:53;;;;;;;2.17;1.10;;;7.30;99.90;;;5.65;68.06;102343.56;2570600;30;136933;-40
2021/11/22 13:57:24;;;;;;;2.25;1.08;;;7.30;99.90;;;5.56;66.21;102337.97;2569661;30;138163;-40
2021/11/22 13:59:55;;;;;;;2.97;1.02;;;7.20;99.90;;;5.54;69.72;102341.84;2567839;30;137078;-41
2021/11/22 14:02:27;;;;;;;2.47;1.00;;;7.20;99.90;;;5.52;69.56;102346.53;2569651;30;138802;-40
2021/11/22 14:04:59;;;;;;;2.28;1.33;;;7.20;99.90;;;5.53;70.11;102342.84;2567461;30;137672;-40
2021/11/22 14:07:52;;;;;;;3.40;1.30;;;7.20;99.90;;;5.52;68.78;102347.38;2569370;30;138259;-40
2021/11/22 14:10:36;;;;;;;3.20;1.30;;;7.20;99.90;;;5.50;69.59;102352.09;2570387;30;138303;-40
2021/11/22 14:13:19;;;;;;;2.42;1.10;;;7.20;99.90;;;5.49;67.42;102355.78;2568851;30;138176;-40
2021/11/22 14:15:51;;;;;;;1.48;0.90;;;7.20;99.90;;;5.49;68.15;102354.94;2567605;30;137300;-40
2021/11/22 14:18:22;;;;;;;2.58;1.05;;;7.20;99.90;;;5.44;69.71;102361.66;2568217;30;138350;-40
2021/11/22 14:20:54;;;;;;;2.35;1.05;;;7.10;99.90;;;5.37;69.01;102362.34;2570119;30;138404;-40
2021/11/22 14:23:26;;;;;;;2.13;1.05;;;7.10;99.90;;;5.33;68.09;102357.22;2570123;30;138249;-40
2021/11/22 14:26:11;;;;;;;3.20;1.27;;;7.00;99.90;;;5.26;69.45;102356.03;2567531;30;137359;-40
2021/11/22 14:28:45;;;;;;;2.53;1.10;;;7.00;99.90;;;5.21;69.02;102357.47;2569021;30;138508;-40
2021/11/22 14:31:27;;;;;;;1.85;0.95;;;6.90;99.90;;;5.15;69.89;102357.00;2566867;30;138878;-40
2021/11/22 14:33:56;;;;;;;1.20;0.80;;;6.90;99.90;;;5.23;69.97;102367.16;2568768;30;137731;-40
2021/11/22 14:36:37;;;;;;;2.15;1.15;;;6.90;99.90;;;5.15;69.15;102364.28;2568059;30;137250;-40
2021/11/22 14:39:05;;;;;;;2.83;0.98;;;6.90;99.90;;;5.12;70.37;102372.69;2570804;30;138186;-40
2021/11/22 14:55:17;;;;;;;3.58;1.08;;;6.80;99.90;;;4.96;71.29;102381.31;2551198;30;137733;-40
2021/11/22 14:57:50;;;;;;;2.72;1.20;;;6.70;99.90;;;4.91;70.23;102387.13;2572206;30;136658;-40
2021/11/22 15:00:44;;;;;;;2.15;1.10;;;6.60;99.90;;;4.83;71.72;102385.09;2572387;30;138522;-40
2021/11/22 15:03:34;;;;;;;2.97;1.10;;;6.60;99.90;;;4.70;72.60;102384.50;2571977;30;137339;-40
2021/11/22 15:06:03;;;;;;;2.38;1.15;;;6.50;99.90;;;4.71;72.26;102381.63;2570344;30;137952;-40
2021/11/22 15:08:31;;;;;;;2.13;1.10;;;6.40;99.90;;;4.57;73.07;102382.84;2570064;30;138283;-40
2021/11/22 15:11:01;;;;;;;1.90;1.00;;;6.30;99.90;;;4.49;73.58;102388.09;2571920;30;138955;-40
2021/11/22 15:13:36;;;;;;;2.33;1.00;;;6.30;99.90;;;4.39;73.52;102390.72;2571192;30;137739;-41
2021/11/22 15:16:06;;;;;;;2.30;1.08;;;6.20;99.90;;;4.30;75.02;102389.69;2571884;30;139133;-40
2021/11/22 15:18:34;;;;;;;2.60;1.08;;;6.10;99.90;;;4.22;73.80;102402.13;2570966;30;137440;-40
2021/11/22 15:21:01;;;;;;;2.45;1.10;;;6.00;99.90;;;4.12;74.46;102391.28;2571849;30;137193;-40
2021/11/22 15:23:29;;;;;;;2.60;1.13;;;5.90;99.90;;;4.01;75.30;102398.44;2570611;30;138146;-40
2021/11/22 15:25:59;;;;;;;4.80;1.30;;;5.90;99.90;;;3.93;75.51;102406.34;2572255;30;137895;-40
2021/11/22 15:28:29;;;;;;;1.48;1.00;;;5.80;99.90;;;3.84;75.49;102407.97;2572315;30;136872;-40
2021/11/22 15:31:01;;;;;;;3.75;1.10;;;5.70;99.90;;;3.79;76.15;102403.94;2571628;30;138337;-40
2021/11/22 15:33:29;;;;;;;2.63;0.77;;;5.60;99.90;;;3.65;77.12;102414.06;2571086;30;137309;-40
2021/11/22 15:35:57;;;;;;;3.90;1.13;;;5.50;99.90;;;3.54;77.95;102411.38;2571580;30;139016;-40
2021/11/22 15:38:25;;;;;;;2.67;1.15;;;5.40;99.90;;;3.44;77.56;102419.38;2571264;30;138538;-40
2021/11/22 15:40:53;;;;;;;3.53;1.20;;;5.30;99.90;;;3.31;78.30;102420.38;2572405;30;138493;-40
2021/11/22 15:43:20;;;;;;;3.50;1.40;;;5.20;99.90;;;3.25;78.98;102429.00;2572993;30;136860;-40
2021/11/22 15:46:01;;;;;;;2.97;1.17;;;5.10;99.90;;;3.10;79.69;102428.41;2570998;30;137249;-40
2021/11/22 15:48:29;;;;;;;2.75;1.10;;;5.00;99.90;;;3.08;79.57;102427.66;2570756;30;138336;-40
2021/11/22 15:50:58;;;;;;;3.90;1.33;;;4.90;99.90;;;2.94;80.20;102434.16;2570587;30;139120;-40
2021/11/22 15:53:26;;;;;;;2.60;1.30;;;4.80;99.90;;;2.79;81.30;102435.38;2566484;30;136639;-40
2021/11/22 15:55:53;;;;;;;2.33;1.08;;;4.70;99.90;;;2.65;82.24;102434.63;2568268;30;138320;-40
2021/11/22 15:58:22;;;;;;;2.60;1.30;;;4.60;99.90;;;2.52;83.13;102439.25;2567208;30;137481;-40
2021/11/22 16:00:49;;;;;;;3.65;1.45;;;4.50;99.90;;;2.41;83.16;102442.78;2568512;30;138598;-40